createdAt,value
2019-05-01T00:01:55.455Z,99.90
2019-05-01T00:07:04.202Z,99.90
2019-05-01T00:12:09.536Z,99.90
2019-05-01T00:17:16.208Z,99.90
2019-05-01T00:22:21.491Z,99.90
2019-05-01T00:27:26.880Z,99.90
2019-05-01T00:32:32.359Z,99.90
2019-05-01T00:37:37.736Z,99.90
2019-05-01T00:42:43.014Z,99.90
2019-05-01T00:47:48.332Z,99.90
2019-05-01T00:52:53.638Z,99.90
2019-05-01T00:58:06.342Z,99.90
2019-05-01T01:03:11.636Z,99.90
2019-05-01T01:08:17.682Z,99.90
2019-05-01T01:13:23.151Z,99.90
2019-05-01T01:18:28.438Z,99.90
2019-05-01T01:23:34.121Z,99.90
2019-05-01T01:28:39.419Z,99.90
2019-05-01T01:33:44.711Z,99.90
2019-05-01T01:38:49.991Z,99.90
2019-05-01T01:44:09.391Z,99.90
2019-05-01T01:49:15.287Z,99.90
2019-05-01T01:54:20.680Z,99.90
2019-05-01T01:59:26.488Z,99.90
2019-05-01T02:04:56.978Z,99.90
2019-05-01T02:10:05.888Z,99.90
2019-05-01T02:15:12.253Z,99.90
2019-05-01T02:20:17.671Z,99.90
2019-05-01T02:25:23.273Z,99.90
2019-05-01T02:30:28.694Z,99.90
2019-05-01T02:35:35.795Z,99.90
2019-05-01T02:40:49.791Z,99.90
2019-05-01T02:46:01.464Z,99.90
2019-05-01T02:51:08.546Z,99.90
2019-05-01T02:56:30.416Z,99.90
2019-05-01T03:01:46.397Z,99.90
2019-05-01T03:06:44.593Z,99.90
2019-05-01T03:11:52.774Z,99.90
2019-05-01T03:17:01.487Z,99.90
2019-05-01T03:22:13.407Z,99.90
2019-05-01T03:27:18.727Z,99.90
2019-05-01T03:32:24.029Z,99.90
2019-05-01T03:37:29.944Z,99.90
2019-05-01T03:42:35.240Z,99.90
2019-05-01T03:47:41.048Z,99.90
2019-05-01T03:52:46.584Z,99.90
2019-05-01T03:57:52.054Z,99.90
2019-05-01T04:03:34.660Z,99.90
2019-05-01T04:08:40.593Z,99.90
2019-05-01T04:13:47.062Z,99.90
2019-05-01T04:18:52.477Z,99.90
2019-05-01T04:23:58.080Z,99.90
2019-05-01T04:29:29.211Z,99.90
2019-05-01T04:34:40.839Z,99.90
2019-05-01T04:39:46.446Z,99.90
2019-05-01T04:44:51.831Z,99.90
2019-05-01T04:49:57.138Z,99.90
2019-05-01T04:55:02.676Z,99.90
2019-05-01T05:00:08.116Z,99.90
2019-05-01T05:05:14.146Z,99.90
2019-05-01T05:10:20.944Z,99.90
2019-05-01T05:15:34.544Z,99.90
2019-05-01T05:20:40.192Z,99.90
2019-05-01T05:25:45.689Z,99.90
2019-05-01T05:30:53.318Z,99.90
2019-05-01T05:35:59.464Z,99.90
2019-05-01T05:41:05.660Z,99.90
2019-05-01T05:46:11.103Z,99.90
2019-05-01T05:51:26.903Z,99.90
2019-05-01T05:56:40.547Z,99.90
2019-05-01T06:02:10.204Z,99.90
2019-05-01T06:07:27.714Z,99.90
2019-05-01T06:12:52.990Z,99.90
2019-05-01T06:18:07.161Z,99.90
2019-05-01T06:23:29.207Z,99.90
2019-05-01T06:28:34.508Z,99.90
2019-05-01T06:33:44.429Z,99.90
2019-05-01T06:38:47.900Z,99.90
2019-05-01T06:44:04.056Z,99.90
2019-05-01T06:49:24.391Z,99.90
2019-05-01T06:54:32.280Z,99.90
2019-05-01T06:59:40.668Z,99.90
2019-05-01T07:04:47.976Z,99.90
2019-05-01T07:09:56.678Z,99.90
2019-05-01T07:15:03.011Z,99.90
2019-05-01T07:20:28.940Z,99.90
2019-05-01T07:25:34.970Z,99.90
2019-05-01T07:30:49.860Z,99.90
2019-05-01T07:35:54.827Z,99.90
2019-05-01T07:41:03.373Z,99.90
2019-05-01T07:46:13.806Z,99.90
2019-05-01T07:51:20.990Z,99.90
2019-05-01T07:56:28.291Z,99.90
2019-05-01T08:01:54.507Z,99.90
2019-05-01T08:06:59.330Z,99.90
2019-05-01T08:12:05.863Z,99.90
2019-05-01T08:17:12.817Z,99.90
2019-05-01T08:22:24.755Z,99.90
2019-05-01T08:27:51.054Z,99.90
2019-05-01T08:33:19.498Z,99.90
2019-05-01T08:38:24.836Z,99.90
2019-05-01T08:43:30.560Z,99.90
2019-05-01T08:48:54.842Z,99.90
2019-05-01T08:54:00.414Z,99.90
2019-05-01T08:59:07.564Z,99.90
2019-05-01T09:04:13.502Z,99.90
2019-05-01T09:09:19.315Z,99.90
2019-05-01T09:14:25.095Z,99.90
2019-05-01T09:19:31.428Z,99.90
2019-05-01T09:24:36.847Z,99.90
2019-05-01T09:29:46.759Z,99.90
2019-05-01T09:34:53.330Z,99.90
2019-05-01T09:39:58.654Z,99.90
2019-05-01T09:45:05.074Z,99.90
2019-05-01T09:50:10.880Z,99.90
2019-05-01T09:55:39.911Z,99.90
2019-05-01T10:00:56.727Z,99.90
2019-05-01T10:06:02.163Z,99.90
2019-05-01T10:11:08.011Z,98.90
2019-05-01T10:16:13.429Z,98.90
2019-05-01T10:21:22.384Z,99.30
2019-05-01T10:26:27.796Z,98.90
2019-05-01T10:31:56.900Z,97.40
2019-05-01T10:37:02.556Z,99.40
2019-05-01T10:42:08.604Z,98.60
2019-05-01T10:47:14.332Z,99.40
2019-05-01T10:52:20.005Z,97.00
2019-05-01T10:57:25.408Z,99.20
2019-05-01T11:02:30.763Z,98.90
2019-05-01T11:07:36.303Z,98.00
2019-05-01T11:12:46.482Z,99.90
2019-05-01T11:17:59.576Z,99.80
2019-05-01T11:23:07.504Z,99.90
2019-05-01T11:28:20.689Z,99.90
2019-05-01T11:33:47.581Z,99.90
2019-05-01T11:39:02.892Z,99.90
2019-05-01T11:44:20.880Z,99.90
2019-05-01T11:49:32.820Z,99.90
2019-05-01T11:54:50.051Z,99.90
2019-05-01T11:59:55.376Z,99.90
2019-05-01T12:05:00.809Z,99.90
2019-05-01T12:10:06.952Z,99.90
2019-05-01T12:15:12.640Z,99.90
2019-05-01T12:20:20.235Z,99.90
2019-05-01T12:25:25.612Z,99.90
2019-05-01T12:30:30.961Z,99.90
2019-05-01T12:35:36.243Z,99.90
2019-05-01T12:40:42.450Z,99.90
2019-05-01T12:45:49.460Z,99.90
2019-05-01T12:50:55.947Z,99.90
2019-05-01T12:56:13.536Z,99.90
2019-05-01T13:01:18.869Z,99.90
2019-05-01T13:06:24.291Z,99.90
2019-05-01T13:11:29.617Z,99.30
2019-05-01T13:16:34.960Z,98.20
2019-05-01T13:21:40.259Z,96.50
2019-05-01T13:26:51.213Z,96.20
2019-05-01T13:32:01.027Z,95.60
2019-05-01T13:37:07.557Z,95.40
2019-05-01T13:42:16.971Z,94.00
2019-05-01T13:47:23.795Z,93.90
2019-05-01T13:52:35.814Z,94.90
2019-05-01T13:57:41.241Z,95.00
2019-05-01T14:02:47.089Z,93.70
2019-05-01T14:07:52.743Z,92.20
2019-05-01T14:12:58.398Z,92.30
2019-05-01T14:18:04.191Z,89.70
2019-05-01T14:23:27.377Z,92.60
2019-05-01T14:28:33.424Z,90.40
2019-05-01T14:33:38.943Z,92.20
2019-05-01T14:38:44.474Z,92.50
2019-05-01T14:43:49.985Z,91.60
2019-05-01T14:48:55.280Z,91.10
2019-05-01T14:54:00.844Z,90.50
2019-05-01T14:59:06.565Z,90.70
2019-05-01T15:04:11.995Z,90.20
2019-05-01T15:09:17.371Z,86.80
2019-05-01T15:14:40.295Z,87.30
2019-05-01T15:19:50.551Z,86.60
2019-05-01T15:24:55.980Z,88.10
2019-05-01T15:30:01.344Z,83.90
2019-05-01T15:35:07.257Z,85.30
2019-05-01T15:40:26.668Z,88.20
2019-05-01T15:45:32.065Z,86.90
2019-05-01T15:50:37.392Z,90.10
2019-05-01T15:55:42.783Z,79.20
2019-05-01T16:00:48.147Z,76.80
2019-05-01T16:05:53.481Z,72.30
2019-05-01T16:11:05.368Z,70.60
2019-05-01T16:16:11.067Z,71.60
2019-05-01T16:21:16.513Z,73.30
2019-05-01T16:26:21.817Z,77.00
2019-05-01T16:31:27.239Z,80.10
2019-05-01T16:36:32.547Z,81.10
2019-05-01T16:41:38.319Z,84.50
2019-05-01T16:46:43.651Z,89.40
2019-05-01T16:51:48.980Z,89.20
2019-05-01T16:56:57.364Z,88.90
2019-05-01T17:02:09.078Z,90.20
2019-05-01T17:07:29.399Z,90.60
2019-05-01T17:12:41.311Z,91.00
2019-05-01T17:17:46.647Z,91.50
2019-05-01T17:22:57.009Z,92.30
2019-05-01T17:28:08.219Z,93.00
2019-05-01T17:33:20.636Z,93.70
2019-05-01T17:38:28.491Z,94.60
2019-05-01T17:43:35.305Z,95.30
2019-05-01T17:48:41.954Z,96.20
2019-05-01T17:53:48.579Z,97.20
2019-05-01T17:58:57.483Z,97.60
2019-05-01T18:04:31.770Z,98.20
2019-05-01T18:09:40.330Z,99.10
2019-05-01T18:14:47.613Z,99.90
2019-05-01T18:19:59.173Z,99.90
2019-05-01T18:25:23.917Z,99.90
2019-05-01T18:30:36.557Z,99.90
2019-05-01T18:35:44.853Z,99.90
2019-05-01T18:40:54.187Z,99.90
2019-05-01T18:46:00.019Z,99.90
2019-05-01T18:51:05.456Z,99.90
2019-05-01T18:56:11.012Z,99.90
2019-05-01T19:01:16.492Z,99.90
2019-05-01T19:06:40.369Z,99.90
2019-05-01T19:11:34.790Z,99.90
2019-05-01T19:16:45.405Z,99.90
2019-05-01T19:21:50.595Z,99.90
2019-05-01T19:26:57.658Z,99.90
2019-05-01T19:32:03.207Z,99.90
2019-05-01T19:37:10.531Z,99.90
2019-05-01T19:42:21.515Z,99.90
2019-05-01T19:47:23.639Z,99.90
2019-05-01T19:52:32.451Z,99.90
2019-05-01T19:57:35.960Z,99.90
2019-05-01T20:02:41.297Z,99.90
2019-05-01T20:07:56.070Z,99.90
2019-05-01T20:13:01.928Z,99.90
2019-05-01T20:18:09.288Z,99.90
2019-05-01T20:23:17.021Z,99.90
2019-05-01T20:28:24.112Z,99.90
2019-05-01T20:33:33.369Z,99.90
2019-05-01T20:38:38.632Z,99.90
2019-05-01T20:43:45.472Z,99.90
2019-05-01T20:48:56.082Z,99.90
2019-05-01T20:54:03.297Z,99.90
2019-05-01T20:59:10.966Z,99.90
2019-05-01T21:04:47.554Z,99.90
2019-05-01T21:09:57.838Z,99.90
2019-05-01T21:15:02.908Z,99.90
2019-05-01T21:20:09.555Z,99.90
2019-05-01T21:25:17.794Z,99.90
2019-05-01T21:30:29.454Z,99.90
2019-05-01T21:35:37.431Z,99.90
2019-05-01T21:40:53.838Z,99.90
2019-05-01T21:46:03.952Z,99.90
2019-05-01T21:51:09.813Z,99.90
2019-05-01T21:56:15.447Z,99.90
2019-05-01T22:01:21.350Z,99.90
2019-05-01T22:06:27.079Z,99.90
2019-05-01T22:11:33.041Z,99.90
2019-05-01T22:16:39.454Z,99.90
2019-05-01T22:22:16.222Z,99.90
2019-05-01T22:27:25.287Z,99.90
2019-05-01T22:32:38.787Z,99.90
2019-05-01T22:37:44.915Z,99.90
2019-05-01T22:42:50.958Z,99.90
2019-05-01T22:47:56.335Z,99.90
2019-05-01T22:53:01.728Z,99.90
2019-05-01T22:58:07.559Z,99.90
2019-05-01T23:03:24.195Z,99.90
2019-05-01T23:08:30.013Z,99.90
2019-05-01T23:13:35.612Z,99.90
2019-05-01T23:18:41.163Z,99.90
2019-05-01T23:23:47.070Z,99.90
2019-05-01T23:28:53.068Z,99.90
2019-05-01T23:33:58.475Z,99.90
2019-05-01T23:39:05.811Z,99.90
2019-05-01T23:44:12.232Z,99.90
2019-05-01T23:49:18.080Z,99.90
2019-05-01T23:54:23.634Z,99.90
2019-05-01T23:59:29.748Z,99.90
